createdAt,value
2019-06-08T00:01:53.302Z,12.93
2019-06-08T00:04:23.279Z,13.77
2019-06-08T00:06:52.939Z,12.87
2019-06-08T00:09:23.866Z,12.13
2019-06-08T00:11:53.895Z,12.93
2019-06-08T00:14:23.560Z,12.67
2019-06-08T00:16:53.310Z,13.03
2019-06-08T00:19:23.656Z,13.13
2019-06-08T00:21:53.759Z,12.60
2019-06-08T00:24:24.259Z,13.03
2019-06-08T00:26:53.920Z,13.57
2019-06-08T00:29:24.592Z,10.00
2019-06-08T00:31:54.563Z,11.73
2019-06-08T00:34:24.873Z,11.10
2019-06-08T00:36:54.695Z,12.03
2019-06-08T00:39:25.146Z,11.07
2019-06-08T00:41:54.873Z,11.53
2019-06-08T00:44:25.642Z,9.67
2019-06-08T00:46:55.462Z,14.10
2019-06-08T00:49:25.220Z,12.53
2019-06-08T00:51:54.934Z,11.53
2019-06-08T00:54:25.789Z,11.10
2019-06-08T00:56:55.718Z,12.07
2019-06-08T00:59:26.192Z,12.07
2019-06-08T01:01:56.199Z,9.10
2019-06-08T01:04:27.134Z,10.87
2019-06-08T01:06:58.104Z,8.60
2019-06-08T01:09:28.139Z,9.27
2019-06-08T01:11:57.805Z,10.00
2019-06-08T01:14:27.496Z,8.80
2019-06-08T01:16:57.141Z,9.03
2019-06-08T01:19:27.440Z,9.13
2019-06-08T01:21:57.251Z,7.30
2019-06-08T01:24:28.003Z,8.93
2019-06-08T01:26:57.944Z,6.90
2019-06-08T01:29:28.397Z,6.63
2019-06-08T01:31:58.291Z,6.50
2019-06-08T01:34:29.068Z,7.43
2019-06-08T01:36:59.060Z,6.73
2019-06-08T01:39:29.491Z,5.40
2019-06-08T01:41:59.243Z,5.63
2019-06-08T01:44:30.009Z,6.00
2019-06-08T01:47:01.232Z,5.70
2019-06-08T01:49:32.484Z,4.70
2019-06-08T01:52:02.545Z,4.97
2019-06-08T01:54:33.326Z,4.57
2019-06-08T01:57:03.620Z,4.83
2019-06-08T01:59:34.799Z,5.60
2019-06-08T02:02:04.775Z,5.07
2019-06-08T02:04:34.887Z,5.10
2019-06-08T02:07:04.806Z,4.77
2019-06-08T02:09:34.918Z,5.60
2019-06-08T02:12:04.879Z,5.80
2019-06-08T02:14:35.447Z,5.23
2019-06-08T02:17:05.307Z,4.40
2019-06-08T02:19:35.006Z,4.93
2019-06-08T02:22:04.736Z,4.70
2019-06-08T02:24:35.483Z,5.67
2019-06-08T02:27:05.205Z,4.97
2019-06-08T02:29:35.783Z,7.80
2019-06-08T02:32:05.727Z,5.97
2019-06-08T02:34:37.927Z,5.33
2019-06-08T02:37:07.097Z,5.10
2019-06-08T02:39:38.434Z,6.80
2019-06-08T02:42:08.460Z,5.87
2019-06-08T02:44:38.135Z,5.53
2019-06-08T02:47:11.211Z,4.27
2019-06-08T02:49:40.869Z,4.53
2019-06-08T02:52:11.619Z,4.90
2019-06-08T02:54:42.262Z,4.70
2019-06-08T02:57:13.436Z,4.67
2019-06-08T02:59:45.454Z,4.50
2019-06-08T03:02:17.790Z,5.43
2019-06-08T03:04:48.190Z,5.70
2019-06-08T03:07:20.128Z,4.87
2019-06-08T03:09:52.586Z,4.80
2019-06-08T03:12:25.841Z,6.70
2019-06-08T03:14:55.729Z,6.03
2019-06-08T03:17:25.408Z,4.53
2019-06-08T03:19:55.094Z,3.50
2019-06-08T03:22:25.073Z,3.50
2019-06-08T03:24:54.715Z,6.00
2019-06-08T03:27:24.461Z,4.10
2019-06-08T03:29:54.366Z,5.03
2019-06-08T03:32:24.121Z,5.50
2019-06-08T03:34:56.518Z,4.30
2019-06-08T03:37:25.208Z,3.30
2019-06-08T03:39:54.867Z,3.40
2019-06-08T03:42:24.560Z,3.20
2019-06-08T03:44:54.202Z,4.43
2019-06-08T03:47:24.185Z,3.10
2019-06-08T03:49:57.371Z,3.83
2019-06-08T03:52:25.630Z,3.30
2019-06-08T03:54:55.288Z,3.93
2019-06-08T03:57:25.270Z,5.57
2019-06-08T03:59:55.183Z,4.63
2019-06-08T04:02:25.135Z,2.83
2019-06-08T04:04:54.870Z,3.00
2019-06-08T04:07:25.654Z,3.63
2019-06-08T04:09:55.292Z,4.53
2019-06-08T04:12:25.028Z,3.73
2019-06-08T04:14:54.682Z,3.60
2019-06-08T04:17:24.388Z,4.30
2019-06-08T04:20:09.778Z,3.27
2019-06-08T04:22:25.729Z,3.43
2019-06-08T04:24:55.699Z,2.67
2019-06-08T04:27:25.434Z,2.83
2019-06-08T04:29:55.391Z,3.47
2019-06-08T04:32:25.031Z,2.80
2019-06-08T04:34:54.700Z,3.93
2019-06-08T04:37:24.730Z,3.17
2019-06-08T04:39:54.380Z,3.03
2019-06-08T04:42:24.014Z,3.90
2019-06-08T04:44:53.659Z,2.47
2019-06-08T04:47:23.299Z,3.37
2019-06-08T04:49:53.218Z,3.90
2019-06-08T04:52:22.920Z,5.07
2019-06-08T04:54:52.624Z,2.97
2019-06-08T04:57:22.677Z,3.80
2019-06-08T04:59:52.375Z,2.60
2019-06-08T05:02:22.017Z,3.87
2019-06-08T05:04:51.803Z,3.07
2019-06-08T05:07:21.696Z,3.57
2019-06-08T05:09:51.358Z,4.33
2019-06-08T05:12:21.559Z,13.33
2019-06-08T05:14:51.640Z,3.93
2019-06-08T05:17:21.525Z,1.70
2019-06-08T05:19:51.181Z,4.23
2019-06-08T05:22:20.825Z,1.53
2019-06-08T05:24:51.587Z,2.20
2019-06-08T05:27:21.222Z,3.10
2019-06-08T05:29:50.907Z,4.80
2019-06-08T05:32:20.768Z,2.07
2019-06-08T05:34:50.424Z,4.53
2019-06-08T05:37:20.194Z,2.23
2019-06-08T05:39:50.015Z,1.87
2019-06-08T05:42:20.884Z,3.83
2019-06-08T05:44:50.536Z,2.17
2019-06-08T05:47:20.585Z,3.13
2019-06-08T05:49:50.217Z,2.13
2019-06-08T05:52:19.922Z,3.27
2019-06-08T05:54:50.165Z,5.53
2019-06-08T05:57:19.997Z,2.23
2019-06-08T05:59:50.480Z,2.93
2019-06-08T06:02:20.258Z,2.33
2019-06-08T06:04:52.110Z,2.23
2019-06-08T06:07:23.756Z,3.30
2019-06-08T06:09:53.841Z,2.07
2019-06-08T06:12:24.327Z,1.67
2019-06-08T06:14:54.408Z,2.40
2019-06-08T06:17:24.111Z,2.17
2019-06-08T06:19:54.088Z,2.97
2019-06-08T06:22:23.735Z,2.77
2019-06-08T06:24:53.370Z,3.17
2019-06-08T06:27:23.431Z,2.83
2019-06-08T06:29:53.491Z,2.50
2019-06-08T06:32:23.136Z,1.53
2019-06-08T06:34:52.816Z,3.67
2019-06-08T06:37:23.502Z,3.53
2019-06-08T06:39:53.219Z,1.70
2019-06-08T06:42:24.938Z,2.30
2019-06-08T06:44:55.127Z,3.40
2019-06-08T06:47:24.947Z,1.63
2019-06-08T06:49:54.826Z,1.80
2019-06-08T06:52:24.519Z,5.87
2019-06-08T06:54:54.252Z,3.37
2019-06-08T06:57:24.079Z,1.97
2019-06-08T06:59:54.246Z,3.83
2019-06-08T07:02:24.215Z,2.20
2019-06-08T07:04:54.319Z,2.47
2019-06-08T07:07:24.562Z,2.80
2019-06-08T07:09:54.907Z,1.77
2019-06-08T07:12:25.927Z,2.83
2019-06-08T07:14:55.621Z,2.73
2019-06-08T07:17:25.427Z,3.60
2019-06-08T07:19:55.093Z,8.13
2019-06-08T07:22:25.310Z,2.87
2019-06-08T07:24:55.023Z,1.60
2019-06-08T07:27:24.982Z,3.07
2019-06-08T07:29:54.960Z,3.20
2019-06-08T07:32:24.987Z,2.70
2019-06-08T07:34:55.319Z,2.93
2019-06-08T07:37:26.347Z,3.37
2019-06-08T07:39:56.266Z,4.10
2019-06-08T07:42:26.048Z,2.57
2019-06-08T07:44:55.851Z,2.70
2019-06-08T07:47:25.514Z,3.80
2019-06-08T07:49:55.675Z,5.80
2019-06-08T07:52:25.379Z,1.97
2019-06-08T07:54:55.051Z,3.10
2019-06-08T07:57:24.762Z,2.47
2019-06-08T07:59:54.690Z,3.63
2019-06-08T08:02:26.063Z,3.43
2019-06-08T08:04:56.752Z,5.03
2019-06-08T08:07:26.661Z,8.73
2019-06-08T08:09:57.029Z,2.87
2019-06-08T08:12:26.841Z,2.87
2019-06-08T08:14:58.044Z,4.13
2019-06-08T08:17:28.105Z,1.60
2019-06-08T08:19:57.761Z,3.67
2019-06-08T08:22:29.596Z,2.73
2019-06-08T08:25:04.326Z,3.00
2019-06-08T08:27:32.103Z,2.97
2019-06-08T08:30:02.306Z,3.93
2019-06-08T08:32:33.056Z,2.43
2019-06-08T08:35:03.139Z,2.80
2019-06-08T08:37:33.017Z,2.77
2019-06-08T08:40:03.240Z,4.07
2019-06-08T08:42:33.123Z,3.80
2019-06-08T08:45:05.445Z,5.73
2019-06-08T08:47:34.271Z,3.13
2019-06-08T08:50:04.262Z,2.20
2019-06-08T08:52:37.383Z,2.80
2019-06-08T08:55:08.112Z,2.57
2019-06-08T08:57:38.547Z,4.80
2019-06-08T09:00:09.350Z,4.77
2019-06-08T09:02:39.141Z,3.97
2019-06-08T09:05:09.339Z,2.07
2019-06-08T09:07:39.326Z,3.30
2019-06-08T09:10:11.485Z,3.10
2019-06-08T09:12:41.912Z,2.40
2019-06-08T09:15:12.016Z,5.13
2019-06-08T09:17:42.658Z,3.33
2019-06-08T09:20:15.964Z,1.70
2019-06-08T09:22:53.744Z,3.23
2019-06-08T09:25:17.980Z,4.77
2019-06-08T09:27:48.232Z,2.60
2019-06-08T09:30:18.607Z,1.53
2019-06-08T09:32:48.484Z,5.57
2019-06-08T09:35:21.024Z,2.30
2019-06-08T09:37:50.657Z,3.53
2019-06-08T09:40:20.301Z,4.20
2019-06-08T09:42:51.429Z,2.40
2019-06-08T09:45:21.625Z,1.83
2019-06-08T09:47:51.365Z,3.50
2019-06-08T09:50:21.411Z,4.37
2019-06-08T09:53:06.046Z,2.83
2019-06-08T09:55:22.501Z,2.33
2019-06-08T09:57:54.548Z,5.30
2019-06-08T10:00:26.361Z,8.63
2019-06-08T10:02:59.637Z,4.00
2019-06-08T10:05:28.224Z,2.07
2019-06-08T10:08:00.559Z,3.83
2019-06-08T10:10:29.505Z,7.37
2019-06-08T10:13:01.734Z,4.97
2019-06-08T10:15:30.922Z,3.47
2019-06-08T10:18:01.118Z,2.93
2019-06-08T10:20:31.636Z,2.33
2019-06-08T10:23:04.823Z,3.17
2019-06-08T10:25:33.991Z,4.00
2019-06-08T10:28:07.778Z,5.20
2019-06-08T10:30:35.153Z,3.20
2019-06-08T10:33:06.958Z,6.50
2019-06-08T10:35:38.231Z,3.97
2019-06-08T10:38:11.866Z,4.93
2019-06-08T10:41:04.769Z,4.77
2019-06-08T10:43:30.383Z,4.77
2019-06-08T10:46:08.453Z,6.03
2019-06-08T10:48:32.808Z,2.07
2019-06-08T10:51:05.436Z,3.67
2019-06-08T10:53:46.467Z,4.87
2019-06-08T10:56:09.621Z,2.10
2019-06-08T10:58:36.919Z,4.37
2019-06-08T11:01:10.719Z,3.90
2019-06-08T11:03:38.918Z,3.53
2019-06-08T11:06:12.832Z,5.33
2019-06-08T11:08:40.608Z,4.93
2019-06-08T11:11:11.917Z,3.37
2019-06-08T11:13:41.949Z,5.63
2019-06-08T11:16:13.539Z,3.70
2019-06-08T11:18:43.217Z,3.13
2019-06-08T11:21:13.127Z,5.93
2019-06-08T11:23:43.812Z,5.27
2019-06-08T11:26:20.935Z,8.00
2019-06-08T11:28:45.321Z,2.97
2019-06-08T11:31:16.264Z,4.90
2019-06-08T11:33:48.818Z,3.30
2019-06-08T11:36:19.064Z,4.43
2019-06-08T11:38:49.375Z,3.50
2019-06-08T11:41:22.603Z,3.57
2019-06-08T11:43:50.564Z,2.30
2019-06-08T11:46:21.714Z,3.47
2019-06-08T11:48:51.908Z,4.73
2019-06-08T11:51:21.832Z,5.80
2019-06-08T11:53:52.515Z,4.47
2019-06-08T11:56:22.890Z,4.90
2019-06-08T11:58:54.542Z,3.80
2019-06-08T12:01:24.274Z,6.80
2019-06-08T12:03:53.920Z,3.47
2019-06-08T12:06:24.008Z,5.67
2019-06-08T12:08:53.807Z,5.97
2019-06-08T12:11:23.999Z,4.27
2019-06-08T12:13:54.046Z,4.13
2019-06-08T12:16:23.756Z,4.80
2019-06-08T12:18:53.483Z,3.57
2019-06-08T12:21:23.194Z,4.10
2019-06-08T12:24:06.202Z,3.17
2019-06-08T12:26:35.968Z,5.27
2019-06-08T12:29:07.155Z,3.60
2019-06-08T12:31:37.821Z,2.20
2019-06-08T12:34:09.005Z,4.97
2019-06-08T12:36:39.377Z,3.77
2019-06-08T12:39:10.107Z,5.20
2019-06-08T12:41:39.936Z,6.43
2019-06-08T12:44:12.121Z,4.97
2019-06-08T12:46:41.396Z,4.37
2019-06-08T12:49:12.873Z,5.07
2019-06-08T12:51:42.712Z,2.97
2019-06-08T12:54:13.089Z,5.30
2019-06-08T12:56:44.320Z,4.43
2019-06-08T12:59:17.025Z,6.53
2019-06-08T13:01:45.433Z,3.53
2019-06-08T13:04:21.281Z,3.70
2019-06-08T13:06:48.328Z,4.27
2019-06-08T13:09:20.627Z,2.17
2019-06-08T13:11:50.826Z,4.20
2019-06-08T13:14:20.909Z,3.87
2019-06-08T13:16:52.966Z,3.00
2019-06-08T13:19:22.883Z,3.50
2019-06-08T13:21:52.666Z,3.50
2019-06-08T13:24:22.316Z,2.93
2019-06-08T13:26:52.034Z,1.60
2019-06-08T13:29:22.183Z,2.50
2019-06-08T13:31:52.021Z,6.03
2019-06-08T13:34:24.498Z,3.63
2019-06-08T13:36:55.333Z,4.17
2019-06-08T13:39:25.012Z,2.63
2019-06-08T13:41:54.958Z,2.50
2019-06-08T13:44:24.608Z,2.37
2019-06-08T13:46:54.254Z,5.87
2019-06-08T13:49:27.300Z,5.87
2019-06-08T13:51:58.170Z,3.57
2019-06-08T13:54:30.924Z,2.57
2019-06-08T13:56:59.018Z,2.53
2019-06-08T13:59:30.955Z,2.87
2019-06-08T14:02:00.336Z,4.30
2019-06-08T14:04:30.500Z,4.40
2019-06-08T14:07:00.460Z,4.63
2019-06-08T14:09:31.563Z,3.17
2019-06-08T14:12:01.687Z,2.90
2019-06-08T14:14:33.624Z,2.60
2019-06-08T14:17:02.682Z,4.20
2019-06-08T14:19:32.571Z,3.50
2019-06-08T14:22:02.224Z,2.90
2019-06-08T14:24:34.659Z,4.13
2019-06-08T14:27:03.658Z,2.43
2019-06-08T14:29:33.371Z,4.03
2019-06-08T14:32:03.179Z,2.33
2019-06-08T14:34:32.827Z,6.13
2019-06-08T14:37:02.483Z,3.23
2019-06-08T14:39:32.219Z,3.30
2019-06-08T14:42:01.957Z,5.47
2019-06-08T14:44:33.885Z,7.00
2019-06-08T14:47:13.755Z,3.20
2019-06-08T14:49:45.125Z,3.53
2019-06-08T14:52:15.252Z,4.47
2019-06-08T14:54:44.999Z,1.93
2019-06-08T14:57:14.667Z,3.57
2019-06-08T14:59:44.298Z,2.30
2019-06-08T15:02:14.201Z,4.00
2019-06-08T15:04:43.851Z,6.13
2019-06-08T15:07:13.652Z,3.93
2019-06-08T15:09:43.376Z,3.03
2019-06-08T15:12:13.035Z,2.80
2019-06-08T15:14:42.779Z,2.83
2019-06-08T15:17:12.443Z,4.10
2019-06-08T15:19:43.079Z,3.83
2019-06-08T15:22:12.977Z,3.60
2019-06-08T15:24:43.078Z,9.10
2019-06-08T15:27:12.784Z,5.43
2019-06-08T15:29:43.494Z,12.20
2019-06-08T15:32:13.154Z,5.13
2019-06-08T15:34:42.787Z,2.80
2019-06-08T15:37:12.555Z,4.13
2019-06-08T15:39:42.295Z,4.23
2019-06-08T15:42:12.913Z,6.90
2019-06-08T15:44:42.936Z,5.80
2019-06-08T15:47:13.262Z,5.13
2019-06-08T15:49:42.914Z,5.60
2019-06-08T15:52:12.565Z,3.30
2019-06-08T15:54:42.276Z,2.50
2019-06-08T15:57:11.985Z,6.30
2019-06-08T15:59:42.097Z,2.90
2019-06-08T16:02:11.920Z,4.63
2019-06-08T16:04:41.742Z,3.03
2019-06-08T16:07:11.514Z,3.57
2019-06-08T16:09:41.196Z,3.47
2019-06-08T16:12:10.826Z,3.53
2019-06-08T16:14:41.512Z,2.77
2019-06-08T16:17:11.404Z,3.43
2019-06-08T16:19:41.152Z,3.47
2019-06-08T16:22:10.871Z,4.20
2019-06-08T16:24:40.611Z,5.00
2019-06-08T16:27:10.559Z,4.73
2019-06-08T16:29:40.215Z,2.80
2019-06-08T16:32:10.280Z,4.00
2019-06-08T16:34:40.103Z,5.03
2019-06-08T16:37:10.328Z,2.93
2019-06-08T16:39:40.244Z,4.73
2019-06-08T16:42:09.883Z,4.37
2019-06-08T16:44:39.703Z,4.83
2019-06-08T16:47:09.388Z,3.53
2019-06-08T16:49:39.669Z,4.00
2019-06-08T16:52:09.360Z,3.20
2019-06-08T16:54:39.155Z,2.53
2019-06-08T16:57:10.620Z,3.37
2019-06-08T16:59:40.213Z,2.73
2019-06-08T17:02:09.969Z,3.17
2019-06-08T17:04:39.631Z,4.13
2019-06-08T17:07:09.376Z,3.40
2019-06-08T17:09:40.069Z,4.10
2019-06-08T17:12:11.576Z,4.20
2019-06-08T17:14:42.412Z,4.27
2019-06-08T17:17:12.182Z,4.27
2019-06-08T17:19:41.836Z,4.90
2019-06-08T17:22:11.564Z,4.37
2019-06-08T17:24:41.199Z,4.00
2019-06-08T17:27:25.879Z,6.07
2019-06-08T17:29:42.359Z,3.77
2019-06-08T17:32:12.017Z,3.70
2019-06-08T17:34:42.470Z,5.10
2019-06-08T17:37:13.447Z,2.13
2019-06-08T17:39:43.131Z,2.83
2019-06-08T17:42:12.867Z,3.43
2019-06-08T17:44:43.014Z,4.27
2019-06-08T17:47:12.664Z,4.07
2019-06-08T17:49:43.241Z,3.27
2019-06-08T17:52:13.119Z,5.17
2019-06-08T17:54:43.280Z,3.73
2019-06-08T17:57:13.100Z,4.73
2019-06-08T17:59:42.867Z,10.93
2019-06-08T18:02:18.070Z,2.70
2019-06-08T18:04:44.568Z,3.90
2019-06-08T18:07:16.936Z,5.23
2019-06-08T18:09:48.321Z,3.87
2019-06-08T18:12:18.319Z,4.50
2019-06-08T18:14:48.475Z,3.65
2019-06-08T18:17:18.123Z,3.37
2019-06-08T18:19:49.643Z,6.83
2019-06-08T18:22:19.227Z,3.87
2019-06-08T18:24:48.939Z,2.80
2019-06-08T18:27:18.671Z,3.17
2019-06-08T18:29:48.820Z,3.07
2019-06-08T18:32:19.851Z,2.60
2019-06-08T18:34:49.497Z,3.13
2019-06-08T18:37:19.215Z,4.50
2019-06-08T18:39:50.166Z,3.67
2019-06-08T18:42:20.869Z,4.40
2019-06-08T18:44:50.519Z,3.73
2019-06-08T18:47:20.154Z,6.53
2019-06-08T18:49:50.232Z,2.90
2019-06-08T18:52:19.946Z,2.60
2019-06-08T18:54:49.906Z,3.13
2019-06-08T18:57:19.765Z,4.20
2019-06-08T18:59:53.050Z,3.60
2019-06-08T19:02:20.999Z,2.20
2019-06-08T19:04:50.647Z,3.30
2019-06-08T19:07:20.660Z,3.80
2019-06-08T19:09:50.841Z,3.43
2019-06-08T19:12:20.491Z,8.07
2019-06-08T19:14:52.269Z,5.37
2019-06-08T19:17:22.699Z,3.30
2019-06-08T19:19:52.674Z,4.43
2019-06-08T19:22:22.426Z,3.67
2019-06-08T19:24:52.120Z,3.80
2019-06-08T19:27:21.910Z,4.90
2019-06-08T19:29:51.906Z,6.23
2019-06-08T19:32:21.855Z,3.10
2019-06-08T19:34:54.409Z,2.37
2019-06-08T19:37:22.873Z,3.53
2019-06-08T19:39:52.583Z,6.87
2019-06-08T19:42:35.658Z,3.77
2019-06-08T19:45:01.126Z,2.50
2019-06-08T19:47:27.081Z,5.33
2019-06-08T19:49:57.779Z,4.13
2019-06-08T19:52:27.676Z,3.47
2019-06-08T19:54:58.063Z,2.40
2019-06-08T19:57:28.374Z,4.43
2019-06-08T20:00:00.417Z,4.40
2019-06-08T20:02:30.086Z,7.77
2019-06-08T20:04:59.821Z,5.33
2019-06-08T20:07:29.492Z,2.60
2019-06-08T20:09:59.127Z,4.73
2019-06-08T20:12:28.853Z,3.30
2019-06-08T20:14:58.766Z,3.97
2019-06-08T20:17:28.604Z,4.77
2019-06-08T20:19:58.488Z,7.57
2019-06-08T20:22:28.278Z,4.53
2019-06-08T20:24:58.210Z,5.93
2019-06-08T20:27:27.877Z,6.93
2019-06-08T20:29:58.346Z,4.40
2019-06-08T20:32:28.470Z,4.83
2019-06-08T20:34:58.111Z,4.63
2019-06-08T20:37:28.408Z,4.17
2019-06-08T20:40:10.317Z,5.13
2019-06-08T20:42:31.533Z,5.70
2019-06-08T20:45:01.192Z,5.40
2019-06-08T20:47:35.955Z,3.40
2019-06-08T20:50:02.906Z,5.33
2019-06-08T20:52:33.431Z,5.23
2019-06-08T20:55:03.142Z,4.57
2019-06-08T20:57:33.094Z,2.47
2019-06-08T21:00:08.317Z,3.77
2019-06-08T21:02:37.196Z,3.80
2019-06-08T21:05:07.840Z,3.63
2019-06-08T21:07:37.708Z,3.33
2019-06-08T21:10:08.540Z,3.00
2019-06-08T21:12:38.499Z,2.70
2019-06-08T21:15:08.690Z,3.03
2019-06-08T21:17:38.592Z,2.50
2019-06-08T21:20:08.726Z,3.57
2019-06-08T21:22:38.589Z,4.50
2019-06-08T21:25:08.835Z,5.60
2019-06-08T21:27:38.722Z,4.77
2019-06-08T21:30:20.357Z,2.63
2019-06-08T21:32:40.572Z,3.53
2019-06-08T21:35:10.211Z,3.17
2019-06-08T21:37:39.867Z,7.40
2019-06-08T21:40:09.755Z,7.17
2019-06-08T21:42:39.418Z,3.80
2019-06-08T21:45:09.921Z,2.50
2019-06-08T21:47:39.711Z,4.87
2019-06-08T21:50:09.517Z,4.17
2019-06-08T21:52:39.166Z,3.83
2019-06-08T21:55:08.885Z,5.87
2019-06-08T21:57:38.564Z,4.50
2019-06-08T22:00:29.434Z,3.40
2019-06-08T22:02:43.727Z,4.30
2019-06-08T22:05:13.544Z,4.47
2019-06-08T22:07:43.843Z,6.27
2019-06-08T22:10:13.562Z,4.30
2019-06-08T22:12:43.467Z,3.07
2019-06-08T22:15:13.198Z,3.73
2019-06-08T22:17:47.193Z,3.37
2019-06-08T22:20:18.456Z,3.50
2019-06-08T22:22:47.907Z,2.70
2019-06-08T22:25:17.787Z,4.23
2019-06-08T22:27:47.519Z,4.67
2019-06-08T22:30:32.359Z,3.60
2019-06-08T22:32:49.671Z,2.57
2019-06-08T22:35:19.323Z,2.33
2019-06-08T22:37:48.963Z,2.70
2019-06-08T22:40:20.304Z,4.80
2019-06-08T22:42:50.011Z,3.63
2019-06-08T22:45:19.654Z,3.63
2019-06-08T22:47:49.302Z,3.87
2019-06-08T22:50:19.111Z,3.70
2019-06-08T22:52:48.861Z,2.60
2019-06-08T22:55:18.757Z,4.43
2019-06-08T22:57:48.506Z,2.97
2019-06-08T23:00:21.698Z,5.13
2019-06-08T23:02:50.066Z,3.20
2019-06-08T23:05:19.714Z,3.30
2019-06-08T23:07:49.540Z,3.00
2019-06-08T23:10:19.271Z,3.90
2019-06-08T23:12:48.907Z,3.80
2019-06-08T23:15:19.005Z,3.37
2019-06-08T23:17:49.928Z,2.53
2019-06-08T23:20:19.794Z,5.37
2019-06-08T23:22:49.414Z,2.93
2019-06-08T23:25:19.067Z,5.30
2019-06-08T23:27:48.747Z,3.17
2019-06-08T23:30:19.616Z,4.70
2019-06-08T23:32:49.593Z,3.83
2019-06-08T23:35:19.234Z,5.27
2019-06-08T23:37:48.949Z,3.60
2019-06-08T23:40:18.846Z,6.33
2019-06-08T23:42:48.583Z,2.20
2019-06-08T23:45:18.320Z,4.70
2019-06-08T23:47:48.209Z,4.70
2019-06-08T23:50:18.177Z,3.20
2019-06-08T23:52:48.188Z,4.50
2019-06-08T23:55:18.325Z,2.53
2019-06-08T23:57:48.156Z,6.50
